Richmond, Virginia
Current Conditions -  °F | °C
As of 1:54 AM on Thursday 27 Nov 2014 (Local Time) from KRIC Reporting Station
Haze Haze  
Wind Chill:   Ceiling: Unl
Heat Index:   Visibility: 6mi
Dew Point:   Wind: 0mph
Humidity: 93%   Direction: NA
Pressure: 30.02"   Gusts: NA
Location:  37.54°N, 77.43°W
Report Text: KRIC 270654Z 00000KT 6SM BR SCT150 03/02 A3002 RMK AO2 SLP171 T00330022
Loading
Personal Weather Stations






























Interactive Weather Map New forecast layout! Learn more

10-Day Weather Forecast

Advertisements
Track Severe Weather on mobile